sensor_id;sensor_type;location;lat;lon;timestamp;P1;durP1;ratioP1;P2;durP2;ratioP2
42084;SDS011;27746;52.228;20.890;2022-12-10T00:01:21;101.65;;;47.92;;
42084;SDS011;27746;52.228;20.890;2022-12-10T00:03:49;98.20;;;47.92;;
42084;SDS011;27746;52.228;20.890;2022-12-10T00:06:17;98.68;;;47.53;;
42084;SDS011;27746;52.228;20.890;2022-12-10T00:08:46;98.75;;;43.33;;
42084;SDS011;27746;52.228;20.890;2022-12-10T00:11:13;100.82;;;50.08;;
42084;SDS011;27746;52.228;20.890;2022-12-10T00:13:42;103.63;;;50.88;;
42084;SDS011;27746;52.228;20.890;2022-12-10T00:16:10;96.22;;;46.28;;
42084;SDS011;27746;52.228;20.890;2022-12-10T00:18:40;101.63;;;47.60;;
42084;SDS011;27746;52.228;20.890;2022-12-10T00:21:08;97.93;;;46.63;;
42084;SDS011;27746;52.228;20.890;2022-12-10T00:23:36;89.93;;;45.05;;
42084;SDS011;27746;52.228;20.890;2022-12-10T00:26:04;96.78;;;47.50;;
42084;SDS011;27746;52.228;20.890;2022-12-10T00:28:32;92.63;;;45.85;;
42084;SDS011;27746;52.228;20.890;2022-12-10T00:31:02;95.47;;;45.47;;
42084;SDS011;27746;52.228;20.890;2022-12-10T00:33:30;98.72;;;48.00;;
42084;SDS011;27746;52.228;20.890;2022-12-10T00:36:02;97.65;;;45.97;;
42084;SDS011;27746;52.228;20.890;2022-12-10T00:40:57;94.10;;;43.42;;
42084;SDS011;27746;52.228;20.890;2022-12-10T00:43:23;96.32;;;46.72;;
42084;SDS011;27746;52.228;20.890;2022-12-10T00:45:52;92.68;;;45.40;;
42084;SDS011;27746;52.228;20.890;2022-12-10T00:48:18;101.15;;;45.83;;
42084;SDS011;27746;52.228;20.890;2022-12-10T00:50:54;107.18;;;49.60;;
42084;SDS011;27746;52.228;20.890;2022-12-10T00:53:23;99.85;;;46.60;;
42084;SDS011;27746;52.228;20.890;2022-12-10T00:55:50;95.30;;;45.08;;
42084;SDS011;27746;52.228;20.890;2022-12-10T00:58:17;101.47;;;47.33;;
42084;SDS011;27746;52.228;20.890;2022-12-10T01:00:44;94.93;;;46.90;;
42084;SDS011;27746;52.228;20.890;2022-12-10T01:03:11;93.15;;;45.10;;
42084;SDS011;27746;52.228;20.890;2022-12-10T01:05:38;106.82;;;47.22;;
42084;SDS011;27746;52.228;20.890;2022-12-10T01:08:05;103.85;;;47.10;;
42084;SDS011;27746;52.228;20.890;2022-12-10T01:10:33;97.90;;;46.20;;
42084;SDS011;27746;52.228;20.890;2022-12-10T01:13:00;101.38;;;45.67;;
42084;SDS011;27746;52.228;20.890;2022-12-10T01:15:27;102.95;;;47.33;;
42084;SDS011;27746;52.228;20.890;2022-12-10T01:17:54;92.88;;;44.15;;
42084;SDS011;27746;52.228;20.890;2022-12-10T01:20:21;97.78;;;45.78;;
42084;SDS011;27746;52.228;20.890;2022-12-10T01:22:47;96.85;;;44.42;;
42084;SDS011;27746;52.228;20.890;2022-12-10T01:25:14;103.35;;;49.53;;
42084;SDS011;27746;52.228;20.890;2022-12-10T01:27:43;98.82;;;47.20;;
42084;SDS011;27746;52.228;20.890;2022-12-10T01:30:10;101.45;;;44.25;;
42084;SDS011;27746;52.228;20.890;2022-12-10T01:32:37;103.32;;;46.35;;
42084;SDS011;27746;52.228;20.890;2022-12-10T01:35:04;97.53;;;44.22;;
42084;SDS011;27746;52.228;20.890;2022-12-10T01:37:31;99.75;;;45.10;;
42084;SDS011;27746;52.228;20.890;2022-12-10T01:39:58;104.20;;;45.13;;
42084;SDS011;27746;52.228;20.890;2022-12-10T01:42:25;98.05;;;44.17;;
42084;SDS011;27746;52.228;20.890;2022-12-10T01:45:01;94.85;;;43.45;;
42084;SDS011;27746;52.228;20.890;2022-12-10T01:47:31;102.13;;;47.38;;
42084;SDS011;27746;52.228;20.890;2022-12-10T01:49:58;99.78;;;45.67;;
42084;SDS011;27746;52.228;20.890;2022-12-10T01:52:26;92.65;;;42.95;;
42084;SDS011;27746;52.228;20.890;2022-12-10T01:54:54;94.72;;;44.15;;
42084;SDS011;27746;52.228;20.890;2022-12-10T01:57:22;96.05;;;44.75;;
42084;SDS011;27746;52.228;20.890;2022-12-10T01:59:51;104.28;;;44.95;;
42084;SDS011;27746;52.228;20.890;2022-12-10T02:02:24;99.28;;;44.78;;
42084;SDS011;27746;52.228;20.890;2022-12-10T02:05:08;102.38;;;46.42;;
42084;SDS011;27746;52.228;20.890;2022-12-10T02:07:49;101.00;;;47.85;;
42084;SDS011;27746;52.228;20.890;2022-12-10T02:10:26;100.82;;;46.67;;
42084;SDS011;27746;52.228;20.890;2022-12-10T02:13:03;90.82;;;43.22;;
42084;SDS011;27746;52.228;20.890;2022-12-10T02:15:35;102.03;;;46.88;;
42084;SDS011;27746;52.228;20.890;2022-12-10T02:18:08;103.47;;;47.47;;
42084;SDS011;27746;52.228;20.890;2022-12-10T02:20:39;102.25;;;44.13;;
42084;SDS011;27746;52.228;20.890;2022-12-10T02:23:08;111.68;;;46.75;;
42084;SDS011;27746;52.228;20.890;2022-12-10T02:25:39;103.60;;;48.20;;
42084;SDS011;27746;52.228;20.890;2022-12-10T02:28:13;97.68;;;46.50;;
42084;SDS011;27746;52.228;20.890;2022-12-10T02:30:45;91.03;;;43.70;;
42084;SDS011;27746;52.228;20.890;2022-12-10T02:33:14;97.93;;;43.60;;
42084;SDS011;27746;52.228;20.890;2022-12-10T02:35:43;95.88;;;44.22;;
42084;SDS011;27746;52.228;20.890;2022-12-10T02:38:14;99.68;;;43.92;;
42084;SDS011;27746;52.228;20.890;2022-12-10T02:40:45;106.68;;;45.13;;
42084;SDS011;27746;52.228;20.890;2022-12-10T02:43:14;99.45;;;41.95;;
42084;SDS011;27746;52.228;20.890;2022-12-10T02:45:43;97.80;;;42.90;;
42084;SDS011;27746;52.228;20.890;2022-12-10T02:48:12;95.10;;;45.30;;
42084;SDS011;27746;52.228;20.890;2022-12-10T02:50:39;94.13;;;44.42;;
42084;SDS011;27746;52.228;20.890;2022-12-10T02:53:06;102.22;;;44.88;;
42084;SDS011;27746;52.228;20.890;2022-12-10T02:55:38;99.30;;;42.72;;
42084;SDS011;27746;52.228;20.890;2022-12-10T02:58:15;90.55;;;41.05;;
42084;SDS011;27746;52.228;20.890;2022-12-10T03:00:50;89.50;;;40.67;;
42084;SDS011;27746;52.228;20.890;2022-12-10T03:03:30;92.28;;;41.42;;
42084;SDS011;27746;52.228;20.890;2022-12-10T03:06:05;83.25;;;35.47;;
42084;SDS011;27746;52.228;20.890;2022-12-10T03:08:38;80.03;;;39.25;;
42084;SDS011;27746;52.228;20.890;2022-12-10T03:11:11;84.15;;;37.33;;
42084;SDS011;27746;52.228;20.890;2022-12-10T03:13:40;88.75;;;38.38;;
42084;SDS011;27746;52.228;20.890;2022-12-10T03:16:14;86.32;;;37.25;;
42084;SDS011;27746;52.228;20.890;2022-12-10T03:18:45;79.80;;;36.55;;
42084;SDS011;27746;52.228;20.890;2022-12-10T03:21:16;82.43;;;36.28;;
42084;SDS011;27746;52.228;20.890;2022-12-10T03:23:45;87.00;;;38.22;;
42084;SDS011;27746;52.228;20.890;2022-12-10T03:26:16;85.45;;;37.92;;
42084;SDS011;27746;52.228;20.890;2022-12-10T03:28:46;82.05;;;35.80;;
42084;SDS011;27746;52.228;20.890;2022-12-10T03:31:16;80.78;;;35.78;;
42084;SDS011;27746;52.228;20.890;2022-12-10T03:33:45;77.45;;;34.60;;
42084;SDS011;27746;52.228;20.890;2022-12-10T03:36:13;80.65;;;36.80;;
42084;SDS011;27746;52.228;20.890;2022-12-10T03:38:42;81.93;;;36.78;;
42084;SDS011;27746;52.228;20.890;2022-12-10T03:41:09;77.60;;;36.50;;
42084;SDS011;27746;52.228;20.890;2022-12-10T03:43:43;76.82;;;34.45;;
42084;SDS011;27746;52.228;20.890;2022-12-10T03:46:17;79.22;;;36.00;;
42084;SDS011;27746;52.228;20.890;2022-12-10T03:48:44;80.32;;;35.45;;
42084;SDS011;27746;52.228;20.890;2022-12-10T03:51:12;80.70;;;34.67;;
42084;SDS011;27746;52.228;20.890;2022-12-10T03:53:39;77.22;;;34.85;;
42084;SDS011;27746;52.228;20.890;2022-12-10T03:56:06;74.32;;;33.30;;
42084;SDS011;27746;52.228;20.890;2022-12-10T03:58:33;77.32;;;34.95;;
42084;SDS011;27746;52.228;20.890;2022-12-10T04:01:00;75.57;;;33.97;;
42084;SDS011;27746;52.228;20.890;2022-12-10T04:03:27;79.15;;;35.03;;
42084;SDS011;27746;52.228;20.890;2022-12-10T04:06:00;83.18;;;38.50;;
42084;SDS011;27746;52.228;20.890;2022-12-10T04:08:27;77.53;;;35.17;;
42084;SDS011;27746;52.228;20.890;2022-12-10T04:10:54;83.55;;;37.63;;
42084;SDS011;27746;52.228;20.890;2022-12-10T04:13:21;90.65;;;38.25;;
42084;SDS011;27746;52.228;20.890;2022-12-10T04:16:05;89.80;;;38.50;;
42084;SDS011;27746;52.228;20.890;2022-12-10T04:18:50;91.35;;;36.97;;
42084;SDS011;27746;52.228;20.890;2022-12-10T04:21:18;88.63;;;37.60;;
42084;SDS011;27746;52.228;20.890;2022-12-10T04:24:03;79.75;;;35.35;;
42084;SDS011;27746;52.228;20.890;2022-12-10T04:26:48;84.75;;;36.25;;
42084;SDS011;27746;52.228;20.890;2022-12-10T04:29:21;86.00;;;38.72;;
42084;SDS011;27746;52.228;20.890;2022-12-10T04:31:49;88.97;;;37.65;;
42084;SDS011;27746;52.228;20.890;2022-12-10T04:34:16;89.10;;;37.47;;
42084;SDS011;27746;52.228;20.890;2022-12-10T04:36:45;88.25;;;40.28;;
42084;SDS011;27746;52.228;20.890;2022-12-10T04:39:12;89.05;;;39.17;;
42084;SDS011;27746;52.228;20.890;2022-12-10T04:41:39;93.60;;;37.65;;
42084;SDS011;27746;52.228;20.890;2022-12-10T04:44:06;89.13;;;39.17;;
42084;SDS011;27746;52.228;20.890;2022-12-10T04:46:34;85.43;;;35.08;;
42084;SDS011;27746;52.228;20.890;2022-12-10T04:49:01;83.70;;;37.60;;
42084;SDS011;27746;52.228;20.890;2022-12-10T04:51:29;85.22;;;36.33;;
42084;SDS011;27746;52.228;20.890;2022-12-10T04:53:57;88.13;;;35.20;;
42084;SDS011;27746;52.228;20.890;2022-12-10T04:56:24;87.97;;;35.08;;
42084;SDS011;27746;52.228;20.890;2022-12-10T04:58:51;82.50;;;36.75;;
42084;SDS011;27746;52.228;20.890;2022-12-10T05:01:18;85.72;;;35.38;;
42084;SDS011;27746;52.228;20.890;2022-12-10T05:03:45;78.22;;;33.50;;
42084;SDS011;27746;52.228;20.890;2022-12-10T05:06:13;80.70;;;37.33;;
42084;SDS011;27746;52.228;20.890;2022-12-10T05:08:42;80.50;;;33.47;;
42084;SDS011;27746;52.228;20.890;2022-12-10T05:11:14;80.85;;;33.85;;
42084;SDS011;27746;52.228;20.890;2022-12-10T05:13:42;86.97;;;35.55;;
42084;SDS011;27746;52.228;20.890;2022-12-10T05:16:10;85.38;;;33.20;;
42084;SDS011;27746;52.228;20.890;2022-12-10T05:18:38;86.22;;;35.22;;
42084;SDS011;27746;52.228;20.890;2022-12-10T05:21:06;78.55;;;33.72;;
42084;SDS011;27746;52.228;20.890;2022-12-10T05:23:36;82.72;;;32.30;;
42084;SDS011;27746;52.228;20.890;2022-12-10T05:26:05;79.00;;;30.90;;
42084;SDS011;27746;52.228;20.890;2022-12-10T05:28:34;78.72;;;32.67;;
42084;SDS011;27746;52.228;20.890;2022-12-10T05:31:03;75.25;;;31.77;;
42084;SDS011;27746;52.228;20.890;2022-12-10T05:33:31;76.07;;;31.63;;
42084;SDS011;27746;52.228;20.890;2022-12-10T05:35:58;64.78;;;29.02;;
42084;SDS011;27746;52.228;20.890;2022-12-10T05:38:27;68.43;;;28.70;;
42084;SDS011;27746;52.228;20.890;2022-12-10T05:40:55;62.70;;;26.15;;
42084;SDS011;27746;52.228;20.890;2022-12-10T05:43:22;74.25;;;29.38;;
42084;SDS011;27746;52.228;20.890;2022-12-10T05:45:50;67.72;;;28.98;;
42084;SDS011;27746;52.228;20.890;2022-12-10T05:48:16;74.47;;;30.13;;
42084;SDS011;27746;52.228;20.890;2022-12-10T05:50:43;82.07;;;32.75;;
42084;SDS011;27746;52.228;20.890;2022-12-10T05:53:10;78.13;;;33.03;;
42084;SDS011;27746;52.228;20.890;2022-12-10T05:55:39;75.47;;;32.63;;
42084;SDS011;27746;52.228;20.890;2022-12-10T05:58:06;78.40;;;33.53;;
42084;SDS011;27746;52.228;20.890;2022-12-10T06:00:33;79.03;;;34.13;;
42084;SDS011;27746;52.228;20.890;2022-12-10T06:03:01;80.93;;;31.70;;
42084;SDS011;27746;52.228;20.890;2022-12-10T06:05:28;76.55;;;32.85;;
42084;SDS011;27746;52.228;20.890;2022-12-10T06:07:55;86.05;;;33.90;;
42084;SDS011;27746;52.228;20.890;2022-12-10T06:10:21;88.20;;;32.28;;
42084;SDS011;27746;52.228;20.890;2022-12-10T06:12:49;83.03;;;31.38;;
42084;SDS011;27746;52.228;20.890;2022-12-10T06:15:15;79.30;;;29.95;;
42084;SDS011;27746;52.228;20.890;2022-12-10T06:17:42;78.22;;;29.35;;
42084;SDS011;27746;52.228;20.890;2022-12-10T06:20:11;75.72;;;31.35;;
42084;SDS011;27746;52.228;20.890;2022-12-10T06:22:38;76.90;;;31.85;;
42084;SDS011;27746;52.228;20.890;2022-12-10T06:25:05;78.57;;;30.65;;
42084;SDS011;27746;52.228;20.890;2022-12-10T06:27:32;66.45;;;29.83;;
42084;SDS011;27746;52.228;20.890;2022-12-10T06:29:59;67.32;;;29.30;;
42084;SDS011;27746;52.228;20.890;2022-12-10T06:32:28;71.53;;;30.23;;
42084;SDS011;27746;52.228;20.890;2022-12-10T06:34:55;64.35;;;27.98;;
42084;SDS011;27746;52.228;20.890;2022-12-10T06:37:23;60.50;;;26.48;;
42084;SDS011;27746;52.228;20.890;2022-12-10T06:39:50;64.18;;;27.75;;
42084;SDS011;27746;52.228;20.890;2022-12-10T06:42:18;61.35;;;26.45;;
42084;SDS011;27746;52.228;20.890;2022-12-10T06:44:46;68.00;;;27.17;;
42084;SDS011;27746;52.228;20.890;2022-12-10T06:47:13;62.72;;;26.63;;
42084;SDS011;27746;52.228;20.890;2022-12-10T06:49:40;65.05;;;27.67;;
42084;SDS011;27746;52.228;20.890;2022-12-10T06:52:07;65.22;;;24.70;;
42084;SDS011;27746;52.228;20.890;2022-12-10T06:54:35;64.32;;;25.30;;
42084;SDS011;27746;52.228;20.890;2022-12-10T06:57:02;63.03;;;25.00;;
42084;SDS011;27746;52.228;20.890;2022-12-10T06:59:29;59.90;;;25.52;;
42084;SDS011;27746;52.228;20.890;2022-12-10T07:01:56;54.78;;;22.92;;
42084;SDS011;27746;52.228;20.890;2022-12-10T07:04:23;57.88;;;25.08;;
42084;SDS011;27746;52.228;20.890;2022-12-10T07:06:50;61.30;;;25.83;;
42084;SDS011;27746;52.228;20.890;2022-12-10T07:09:17;65.15;;;26.58;;
42084;SDS011;27746;52.228;20.890;2022-12-10T07:11:45;68.68;;;25.13;;
42084;SDS011;27746;52.228;20.890;2022-12-10T07:14:13;63.80;;;26.08;;
42084;SDS011;27746;52.228;20.890;2022-12-10T07:16:41;59.60;;;24.05;;
42084;SDS011;27746;52.228;20.890;2022-12-10T07:19:09;59.38;;;26.95;;
42084;SDS011;27746;52.228;20.890;2022-12-10T07:21:37;58.42;;;23.73;;
42084;SDS011;27746;52.228;20.890;2022-12-10T07:24:07;62.60;;;25.63;;
42084;SDS011;27746;52.228;20.890;2022-12-10T07:26:37;78.35;;;26.63;;
42084;SDS011;27746;52.228;20.890;2022-12-10T07:29:07;72.78;;;29.23;;
42084;SDS011;27746;52.228;20.890;2022-12-10T07:31:38;69.30;;;27.73;;
42084;SDS011;27746;52.228;20.890;2022-12-10T07:34:05;69.50;;;25.88;;
42084;SDS011;27746;52.228;20.890;2022-12-10T07:36:34;68.05;;;25.88;;
42084;SDS011;27746;52.228;20.890;2022-12-10T07:39:04;66.25;;;27.40;;
42084;SDS011;27746;52.228;20.890;2022-12-10T07:41:31;68.35;;;28.92;;
42084;SDS011;27746;52.228;20.890;2022-12-10T07:43:58;74.47;;;28.13;;
42084;SDS011;27746;52.228;20.890;2022-12-10T07:46:28;65.80;;;27.83;;
42084;SDS011;27746;52.228;20.890;2022-12-10T07:48:58;68.93;;;27.98;;
42084;SDS011;27746;52.228;20.890;2022-12-10T07:51:26;68.68;;;28.17;;
42084;SDS011;27746;52.228;20.890;2022-12-10T07:53:56;66.80;;;25.60;;
42084;SDS011;27746;52.228;20.890;2022-12-10T07:56:23;70.68;;;25.65;;
42084;SDS011;27746;52.228;20.890;2022-12-10T07:58:50;61.67;;;26.08;;
42084;SDS011;27746;52.228;20.890;2022-12-10T08:01:19;71.03;;;28.75;;
42084;SDS011;27746;52.228;20.890;2022-12-10T08:03:51;72.45;;;27.40;;
42084;SDS011;27746;52.228;20.890;2022-12-10T08:06:21;68.95;;;25.83;;
42084;SDS011;27746;52.228;20.890;2022-12-10T08:08:49;68.32;;;25.25;;
42084;SDS011;27746;52.228;20.890;2022-12-10T08:11:17;66.97;;;24.55;;
42084;SDS011;27746;52.228;20.890;2022-12-10T08:13:45;61.40;;;25.42;;
42084;SDS011;27746;52.228;20.890;2022-12-10T08:16:13;63.53;;;24.73;;
42084;SDS011;27746;52.228;20.890;2022-12-10T08:18:41;61.63;;;23.33;;
42084;SDS011;27746;52.228;20.890;2022-12-10T08:21:11;56.67;;;24.92;;
42084;SDS011;27746;52.228;20.890;2022-12-10T08:23:40;56.15;;;22.15;;
42084;SDS011;27746;52.228;20.890;2022-12-10T08:26:08;57.10;;;23.48;;
42084;SDS011;27746;52.228;20.890;2022-12-10T08:28:36;58.38;;;23.77;;
42084;SDS011;27746;52.228;20.890;2022-12-10T08:31:04;56.72;;;24.30;;
42084;SDS011;27746;52.228;20.890;2022-12-10T08:33:33;51.28;;;21.75;;
42084;SDS011;27746;52.228;20.890;2022-12-10T08:36:01;62.88;;;23.23;;
42084;SDS011;27746;52.228;20.890;2022-12-10T08:38:30;60.35;;;23.25;;
42084;SDS011;27746;52.228;20.890;2022-12-10T08:40:57;52.03;;;21.75;;
42084;SDS011;27746;52.228;20.890;2022-12-10T08:43:25;56.97;;;23.88;;
42084;SDS011;27746;52.228;20.890;2022-12-10T08:45:52;51.22;;;20.08;;
42084;SDS011;27746;52.228;20.890;2022-12-10T08:48:20;51.33;;;20.90;;
42084;SDS011;27746;52.228;20.890;2022-12-10T08:50:48;60.42;;;21.40;;
42084;SDS011;27746;52.228;20.890;2022-12-10T08:53:16;50.38;;;20.20;;
42084;SDS011;27746;52.228;20.890;2022-12-10T08:55:44;50.53;;;21.88;;
42084;SDS011;27746;52.228;20.890;2022-12-10T08:58:11;45.22;;;19.80;;
42084;SDS011;27746;52.228;20.890;2022-12-10T09:00:37;43.38;;;18.80;;
42084;SDS011;27746;52.228;20.890;2022-12-10T09:03:05;42.55;;;18.00;;
42084;SDS011;27746;52.228;20.890;2022-12-10T09:05:33;47.42;;;19.40;;
42084;SDS011;27746;52.228;20.890;2022-12-10T09:08:00;38.40;;;17.73;;
42084;SDS011;27746;52.228;20.890;2022-12-10T09:10:27;46.55;;;19.48;;
42084;SDS011;27746;52.228;20.890;2022-12-10T09:12:55;46.78;;;18.40;;
42084;SDS011;27746;52.228;20.890;2022-12-10T09:15:22;43.08;;;17.58;;
42084;SDS011;27746;52.228;20.890;2022-12-10T09:17:49;40.83;;;19.00;;
42084;SDS011;27746;52.228;20.890;2022-12-10T09:20:16;47.28;;;19.05;;
42084;SDS011;27746;52.228;20.890;2022-12-10T09:22:43;42.70;;;18.02;;
42084;SDS011;27746;52.228;20.890;2022-12-10T09:25:10;40.38;;;18.42;;
42084;SDS011;27746;52.228;20.890;2022-12-10T09:27:40;43.53;;;18.02;;
42084;SDS011;27746;52.228;20.890;2022-12-10T09:30:09;41.88;;;18.30;;
42084;SDS011;27746;52.228;20.890;2022-12-10T09:32:37;47.28;;;18.15;;
42084;SDS011;27746;52.228;20.890;2022-12-10T09:35:04;36.53;;;15.77;;
42084;SDS011;27746;52.228;20.890;2022-12-10T09:37:32;39.05;;;18.35;;
42084;SDS011;27746;52.228;20.890;2022-12-10T09:39:59;44.20;;;19.13;;
42084;SDS011;27746;52.228;20.890;2022-12-10T09:42:29;42.40;;;18.17;;
42084;SDS011;27746;52.228;20.890;2022-12-10T09:45:09;51.88;;;19.50;;
42084;SDS011;27746;52.228;20.890;2022-12-10T09:47:45;42.50;;;17.95;;
42084;SDS011;27746;52.228;20.890;2022-12-10T09:50:23;47.53;;;19.67;;
42084;SDS011;27746;52.228;20.890;2022-12-10T09:52:56;45.20;;;19.00;;
42084;SDS011;27746;52.228;20.890;2022-12-10T09:55:27;48.88;;;19.20;;
42084;SDS011;27746;52.228;20.890;2022-12-10T09:58:00;48.33;;;18.50;;
42084;SDS011;27746;52.228;20.890;2022-12-10T10:00:32;40.47;;;18.25;;
42084;SDS011;27746;52.228;20.890;2022-12-10T10:03:01;48.22;;;17.85;;
42084;SDS011;27746;52.228;20.890;2022-12-10T10:05:30;40.95;;;18.10;;
42084;SDS011;27746;52.228;20.890;2022-12-10T10:07:59;42.22;;;17.83;;
42084;SDS011;27746;52.228;20.890;2022-12-10T10:10:29;48.47;;;19.65;;
42084;SDS011;27746;52.228;20.890;2022-12-10T10:12:58;41.22;;;18.60;;
42084;SDS011;27746;52.228;20.890;2022-12-10T10:15:37;47.55;;;21.75;;
42084;SDS011;27746;52.228;20.890;2022-12-10T10:18:09;50.85;;;20.55;;
42084;SDS011;27746;52.228;20.890;2022-12-10T10:20:40;51.75;;;20.65;;
42084;SDS011;27746;52.228;20.890;2022-12-10T10:23:08;46.90;;;21.23;;
42084;SDS011;27746;52.228;20.890;2022-12-10T10:25:38;43.45;;;20.05;;
42084;SDS011;27746;52.228;20.890;2022-12-10T10:28:05;51.58;;;21.90;;
42084;SDS011;27746;52.228;20.890;2022-12-10T10:30:32;44.30;;;19.48;;
42084;SDS011;27746;52.228;20.890;2022-12-10T10:33:01;46.03;;;19.23;;
42084;SDS011;27746;52.228;20.890;2022-12-10T10:35:41;45.22;;;18.42;;
42084;SDS011;27746;52.228;20.890;2022-12-10T10:38:13;44.05;;;18.08;;
42084;SDS011;27746;52.228;20.890;2022-12-10T10:40:44;44.78;;;17.95;;
42084;SDS011;27746;52.228;20.890;2022-12-10T10:43:15;39.35;;;18.58;;
42084;SDS011;27746;52.228;20.890;2022-12-10T10:45:47;44.50;;;19.92;;
42084;SDS011;27746;52.228;20.890;2022-12-10T10:48:19;43.97;;;19.52;;
42084;SDS011;27746;52.228;20.890;2022-12-10T10:50:48;51.38;;;21.02;;
42084;SDS011;27746;52.228;20.890;2022-12-10T10:53:21;44.22;;;19.00;;
42084;SDS011;27746;52.228;20.890;2022-12-10T10:55:49;47.13;;;20.90;;
42084;SDS011;27746;52.228;20.890;2022-12-10T10:58:18;48.55;;;22.38;;
42084;SDS011;27746;52.228;20.890;2022-12-10T11:03:26;43.83;;;18.80;;
42084;SDS011;27746;52.228;20.890;2022-12-10T11:05:55;51.17;;;20.35;;
42084;SDS011;27746;52.228;20.890;2022-12-10T11:08:24;43.38;;;19.95;;
42084;SDS011;27746;52.228;20.890;2022-12-10T11:10:56;45.95;;;19.50;;
42084;SDS011;27746;52.228;20.890;2022-12-10T11:13:28;47.33;;;19.48;;
42084;SDS011;27746;52.228;20.890;2022-12-10T11:15:57;46.97;;;19.20;;
42084;SDS011;27746;52.228;20.890;2022-12-10T11:18:30;48.90;;;20.95;;
42084;SDS011;27746;52.228;20.890;2022-12-10T11:21:03;45.47;;;18.98;;
42084;SDS011;27746;52.228;20.890;2022-12-10T11:23:35;45.08;;;19.83;;
42084;SDS011;27746;52.228;20.890;2022-12-10T11:26:17;46.78;;;19.55;;
42084;SDS011;27746;52.228;20.890;2022-12-10T11:28:57;48.53;;;19.63;;
42084;SDS011;27746;52.228;20.890;2022-12-10T11:31:39;53.13;;;19.55;;
42084;SDS011;27746;52.228;20.890;2022-12-10T11:34:17;46.97;;;20.60;;
42084;SDS011;27746;52.228;20.890;2022-12-10T11:36:49;52.67;;;21.25;;
42084;SDS011;27746;52.228;20.890;2022-12-10T11:39:30;51.13;;;19.27;;
42084;SDS011;27746;52.228;20.890;2022-12-10T11:42:12;43.00;;;18.23;;
42084;SDS011;27746;52.228;20.890;2022-12-10T11:44:47;47.63;;;18.10;;
42084;SDS011;27746;52.228;20.890;2022-12-10T11:53:02;43.13;;;19.75;;
42084;SDS011;27746;52.228;20.890;2022-12-10T11:55:58;49.90;;;20.30;;
42084;SDS011;27746;52.228;20.890;2022-12-10T11:58:38;45.95;;;18.38;;
42084;SDS011;27746;52.228;20.890;2022-12-10T12:01:17;47.17;;;18.60;;
42084;SDS011;27746;52.228;20.890;2022-12-10T12:03:57;53.90;;;19.25;;
42084;SDS011;27746;52.228;20.890;2022-12-10T12:06:40;56.08;;;20.95;;
42084;SDS011;27746;52.228;20.890;2022-12-10T12:09:23;50.70;;;18.98;;
42084;SDS011;27746;52.228;20.890;2022-12-10T12:11:59;50.53;;;21.48;;
42084;SDS011;27746;52.228;20.890;2022-12-10T12:14:34;48.72;;;21.02;;
42084;SDS011;27746;52.228;20.890;2022-12-10T12:17:07;49.83;;;19.27;;
42084;SDS011;27746;52.228;20.890;2022-12-10T12:19:40;46.05;;;20.58;;
42084;SDS011;27746;52.228;20.890;2022-12-10T12:22:15;57.10;;;23.23;;
42084;SDS011;27746;52.228;20.890;2022-12-10T12:24:47;52.55;;;19.90;;
42084;SDS011;27746;52.228;20.890;2022-12-10T12:27:20;53.70;;;19.88;;
42084;SDS011;27746;52.228;20.890;2022-12-10T12:29:58;54.30;;;19.60;;
42084;SDS011;27746;52.228;20.890;2022-12-10T12:32:43;55.15;;;20.98;;
42084;SDS011;27746;52.228;20.890;2022-12-10T12:35:16;46.05;;;18.85;;
42084;SDS011;27746;52.228;20.890;2022-12-10T12:37:48;50.92;;;21.67;;
42084;SDS011;27746;52.228;20.890;2022-12-10T12:40:23;46.38;;;19.75;;
42084;SDS011;27746;52.228;20.890;2022-12-10T12:42:55;55.00;;;20.88;;
42084;SDS011;27746;52.228;20.890;2022-12-10T12:45:29;46.70;;;20.05;;
42084;SDS011;27746;52.228;20.890;2022-12-10T12:48:01;49.58;;;20.42;;
42084;SDS011;27746;52.228;20.890;2022-12-10T12:50:39;51.00;;;19.17;;
42084;SDS011;27746;52.228;20.890;2022-12-10T12:53:11;51.97;;;20.92;;
42084;SDS011;27746;52.228;20.890;2022-12-10T12:55:41;50.45;;;19.63;;
42084;SDS011;27746;52.228;20.890;2022-12-10T12:58:15;44.33;;;19.25;;
42084;SDS011;27746;52.228;20.890;2022-12-10T13:00:50;39.22;;;16.92;;
42084;SDS011;27746;52.228;20.890;2022-12-10T13:03:26;45.53;;;18.35;;
42084;SDS011;27746;52.228;20.890;2022-12-10T13:06:11;45.42;;;19.02;;
42084;SDS011;27746;52.228;20.890;2022-12-10T13:08:44;40.72;;;17.70;;
42084;SDS011;27746;52.228;20.890;2022-12-10T13:11:16;40.08;;;18.92;;
42084;SDS011;27746;52.228;20.890;2022-12-10T13:17:00;55.65;;;21.50;;
42084;SDS011;27746;52.228;20.890;2022-12-10T13:19:50;47.28;;;21.77;;
42084;SDS011;27746;52.228;20.890;2022-12-10T13:25:18;58.67;;;22.75;;
42084;SDS011;27746;52.228;20.890;2022-12-10T13:27:54;62.55;;;24.38;;
42084;SDS011;27746;52.228;20.890;2022-12-10T13:30:27;53.85;;;23.23;;
42084;SDS011;27746;52.228;20.890;2022-12-10T13:33:04;54.45;;;22.75;;
42084;SDS011;27746;52.228;20.890;2022-12-10T13:35:48;47.15;;;20.63;;
42084;SDS011;27746;52.228;20.890;2022-12-10T13:38:22;51.95;;;20.55;;
42084;SDS011;27746;52.228;20.890;2022-12-10T13:40:58;43.72;;;19.88;;
42084;SDS011;27746;52.228;20.890;2022-12-10T13:43:51;46.55;;;20.50;;
42084;SDS011;27746;52.228;20.890;2022-12-10T13:46:58;50.30;;;19.70;;
42084;SDS011;27746;52.228;20.890;2022-12-10T13:49:30;51.78;;;21.50;;
42084;SDS011;27746;52.228;20.890;2022-12-10T13:52:02;52.05;;;21.55;;
42084;SDS011;27746;52.228;20.890;2022-12-10T13:57:37;49.75;;;22.83;;
42084;SDS011;27746;52.228;20.890;2022-12-10T14:00:31;52.05;;;24.65;;
42084;SDS011;27746;52.228;20.890;2022-12-10T14:03:06;51.72;;;22.42;;
42084;SDS011;27746;52.228;20.890;2022-12-10T14:06:03;48.35;;;21.95;;
42084;SDS011;27746;52.228;20.890;2022-12-10T14:08:52;45.70;;;20.25;;
42084;SDS011;27746;52.228;20.890;2022-12-10T14:11:23;48.88;;;20.83;;
42084;SDS011;27746;52.228;20.890;2022-12-10T14:13:55;45.08;;;20.58;;
42084;SDS011;27746;52.228;20.890;2022-12-10T14:16:24;42.67;;;18.90;;
42084;SDS011;27746;52.228;20.890;2022-12-10T14:18:56;46.58;;;20.48;;
42084;SDS011;27746;52.228;20.890;2022-12-10T14:21:24;55.80;;;21.40;;
42084;SDS011;27746;52.228;20.890;2022-12-10T14:23:52;43.15;;;19.52;;
42084;SDS011;27746;52.228;20.890;2022-12-10T14:26:20;45.00;;;20.15;;
42084;SDS011;27746;52.228;20.890;2022-12-10T14:28:55;43.22;;;20.55;;
42084;SDS011;27746;52.228;20.890;2022-12-10T14:31:25;44.22;;;21.58;;
42084;SDS011;27746;52.228;20.890;2022-12-10T14:33:57;39.95;;;18.50;;
42084;SDS011;27746;52.228;20.890;2022-12-10T14:36:27;37.03;;;18.08;;
42084;SDS011;27746;52.228;20.890;2022-12-10T14:38:55;41.08;;;20.08;;
42084;SDS011;27746;52.228;20.890;2022-12-10T14:41:23;39.60;;;17.95;;
42084;SDS011;27746;52.228;20.890;2022-12-10T14:43:52;42.00;;;19.20;;
42084;SDS011;27746;52.228;20.890;2022-12-10T14:46:23;42.97;;;21.20;;
42084;SDS011;27746;52.228;20.890;2022-12-10T14:48:53;42.58;;;20.52;;